createdAt,value
2018-05-07T14:45:54.418Z,52.70
2018-05-07T14:49:57.702Z,52.90
2018-05-07T14:54:00.230Z,52.90
2018-05-07T14:58:04.763Z,52.90
2018-05-07T15:02:07.348Z,52.00
2018-05-07T15:06:13.443Z,53.30
2018-05-07T15:10:15.987Z,54.10
2018-05-07T15:14:23.182Z,52.20
2018-05-07T15:18:28.875Z,54.00
2018-05-07T15:22:31.402Z,53.60
2018-05-07T15:26:35.039Z,53.10
2018-05-07T15:30:38.331Z,52.50
2018-05-07T15:34:40.882Z,52.50
2018-05-07T15:38:43.426Z,53.60
2018-05-07T15:42:45.964Z,53.30
2018-05-07T15:46:48.533Z,53.00
2018-05-07T15:51:04.222Z,51.90
2018-05-07T15:55:06.734Z,50.60
2018-05-07T15:59:09.387Z,52.10
2018-05-07T16:03:11.988Z,52.30
2018-05-07T16:07:20.690Z,51.70
2018-05-07T16:11:23.243Z,52.20
2018-05-07T16:15:25.900Z,52.10
2018-05-07T16:19:28.359Z,52.80
2018-05-07T16:23:35.168Z,53.80
2018-05-07T16:27:37.412Z,53.20
2018-05-07T16:31:39.970Z,51.90
2018-05-07T16:35:42.537Z,53.40
2018-05-07T16:39:45.827Z,54.00
2018-05-07T16:43:49.110Z,54.20
2018-05-07T16:48:04.548Z,54.20
2018-05-07T16:52:07.832Z,53.10
2018-05-07T16:56:11.377Z,53.10
2018-05-07T17:00:13.914Z,53.80
2018-05-07T17:04:17.238Z,55.20
2018-05-07T17:08:20.573Z,55.00
2018-05-07T17:12:23.175Z,55.00
2018-05-07T17:16:26.467Z,56.30
2018-05-07T17:20:31.335Z,56.30
2018-05-07T17:24:34.869Z,57.20
2018-05-07T17:28:42.968Z,57.90
2018-05-07T17:32:47.552Z,57.50
2018-05-07T17:36:51.258Z,59.10
2018-05-07T17:40:53.809Z,62.00
2018-05-07T17:45:10.967Z,62.00
2018-05-07T17:49:24.946Z,62.00
2018-05-07T17:53:27.727Z,61.60
2018-05-07T17:57:30.235Z,62.00
2018-05-07T18:01:32.783Z,63.20
2018-05-07T18:05:35.296Z,63.80
2018-05-07T18:09:39.802Z,63.90
2018-05-07T18:13:43.092Z,65.10
2018-05-07T18:17:45.775Z,65.10
2018-05-07T18:21:49.088Z,66.30
2018-05-07T18:25:55.643Z,66.40
2018-05-07T18:30:00.167Z,67.20
2018-05-07T18:34:02.734Z,67.80
2018-05-07T18:38:06.263Z,68.00
2018-05-07T18:42:08.783Z,68.50
2018-05-07T18:46:11.399Z,70.40
2018-05-07T18:50:13.973Z,69.00
2018-05-07T18:54:18.310Z,69.10
2018-05-07T18:58:22.634Z,69.70
2018-05-07T19:02:25.193Z,69.60
2018-05-07T19:06:27.751Z,69.60
2018-05-07T19:10:32.313Z,70.60
2018-05-07T19:14:35.732Z,71.00
2018-05-07T19:18:39.243Z,71.00
2018-05-07T19:22:44.290Z,71.50
2018-05-07T19:26:52.947Z,72.60
2018-05-07T19:30:55.498Z,72.20
2018-05-07T19:35:00.735Z,75.10
2018-05-07T19:39:09.492Z,75.30
2018-05-07T19:43:12.034Z,75.10
2018-05-07T19:47:14.811Z,74.40
2018-05-07T19:51:26.282Z,74.50
2018-05-07T19:55:28.969Z,75.30
2018-05-07T19:59:32.255Z,76.40
2018-05-07T20:03:34.980Z,76.40
2018-05-07T20:07:37.552Z,77.50
2018-05-07T20:11:40.110Z,77.20
2018-05-07T20:15:43.411Z,78.60
2018-05-07T20:19:45.989Z,78.50
2018-05-07T20:23:48.595Z,79.20
2018-05-07T20:27:51.243Z,78.70
2018-05-07T20:31:53.837Z,79.50
2018-05-07T20:35:56.480Z,79.30
2018-05-07T20:40:02.186Z,79.50
2018-05-07T20:44:04.735Z,80.10
2018-05-07T20:48:07.378Z,80.90
2018-05-07T20:52:09.908Z,81.10
2018-05-07T20:56:12.581Z,81.20
2018-05-07T21:00:15.184Z,82.40
2018-05-07T21:04:17.719Z,82.00
2018-05-07T21:08:20.928Z,82.10
2018-05-07T21:12:23.449Z,82.10
2018-05-07T21:16:26.026Z,82.50
2018-05-07T21:20:29.302Z,83.20
2018-05-07T21:24:31.948Z,83.10
2018-05-07T21:28:35.223Z,83.70
2018-05-07T21:32:37.770Z,83.70
2018-05-07T21:36:41.058Z,83.50
2018-05-07T21:40:44.006Z,83.30
2018-05-07T21:44:46.605Z,84.10
2018-05-07T21:48:49.239Z,84.20
2018-05-07T21:52:52.523Z,85.00
2018-05-07T21:56:55.270Z,85.00
2018-05-07T22:00:59.555Z,85.40
2018-05-07T22:05:02.103Z,85.40
2018-05-07T22:09:05.583Z,85.70
2018-05-07T22:13:08.573Z,86.50
2018-05-07T22:17:11.126Z,86.00
2018-05-07T22:21:13.671Z,86.50
2018-05-07T22:25:16.956Z,87.20
2018-05-07T22:29:19.606Z,87.10
2018-05-07T22:33:22.895Z,88.30
2018-05-07T22:37:25.444Z,88.20
2018-05-07T22:41:27.960Z,88.30
2018-05-07T22:45:30.558Z,88.90
2018-05-07T22:49:33.074Z,89.80
2018-05-07T22:53:35.628Z,90.00
2018-05-07T22:57:44.650Z,90.20
2018-05-07T23:01:47.195Z,90.30
2018-05-07T23:05:49.720Z,90.50
2018-05-07T23:09:53.027Z,90.60
2018-05-07T23:13:55.534Z,90.60
2018-05-07T23:17:58.086Z,90.70
2018-05-07T23:22:00.600Z,91.00
2018-05-07T23:26:03.170Z,90.80
2018-05-07T23:30:06.450Z,91.70
2018-05-07T23:34:09.111Z,91.70
2018-05-07T23:38:11.663Z,91.80
2018-05-07T23:42:14.206Z,91.80
2018-05-07T23:46:17.548Z,93.70
2018-05-07T23:50:20.087Z,93.60
2018-05-07T23:54:22.611Z,94.00
2018-05-07T23:58:25.162Z,94.00
